createdAt,value
2018-12-04T00:00:53.301Z,1003.51
2018-12-04T00:01:53.181Z,1003.51
2018-12-04T00:02:53.302Z,1003.57
2018-12-04T00:03:53.180Z,1003.59
2018-12-04T00:04:53.060Z,1003.65
2018-12-04T00:05:53.060Z,1003.68
2018-12-04T00:06:52.937Z,1003.72
2018-12-04T00:07:52.937Z,1003.74
2018-12-04T00:08:52.943Z,1003.76
2018-12-04T00:09:52.821Z,1003.83
2018-12-04T00:10:52.824Z,1003.83
2018-12-04T00:11:52.817Z,1003.84
2018-12-04T00:12:52.701Z,1003.88
2018-12-04T00:13:52.698Z,1003.86
2018-12-04T00:14:52.577Z,1003.96
2018-12-04T00:15:52.583Z,1003.95
2018-12-04T00:16:52.578Z,1004.05
2018-12-04T00:17:52.457Z,1003.92
2018-12-04T00:18:52.455Z,1004.04
2018-12-04T00:19:52.345Z,1004.04
2018-12-04T00:20:52.334Z,1004.15
2018-12-04T00:21:52.335Z,1004.20
2018-12-04T00:22:52.216Z,1004.27
2018-12-04T00:23:52.224Z,1004.34
2018-12-04T00:24:52.094Z,1004.38
2018-12-04T00:25:52.095Z,1004.37
2018-12-04T00:26:52.100Z,1004.49
2018-12-04T00:27:51.974Z,1004.51
2018-12-04T00:28:51.980Z,1004.51
2018-12-04T00:29:51.936Z,1004.56
2018-12-04T00:30:51.852Z,1004.54
2018-12-04T00:31:51.852Z,1004.58
2018-12-04T00:32:51.734Z,1004.66
2018-12-04T00:33:51.742Z,1004.66
2018-12-04T00:34:51.736Z,1004.65
2018-12-04T00:35:51.616Z,1004.73
2018-12-04T00:36:51.612Z,1004.74
2018-12-04T00:37:51.493Z,1004.74
2018-12-04T00:38:51.499Z,1004.78
2018-12-04T00:39:51.494Z,1004.80
2018-12-04T00:40:51.371Z,1004.79
2018-12-04T00:41:51.370Z,1004.82
2018-12-04T00:42:51.249Z,1004.90
2018-12-04T00:43:51.251Z,1004.95
2018-12-04T00:44:51.252Z,1004.94
2018-12-04T00:45:51.129Z,1005.02
2018-12-04T00:46:51.129Z,1005.01
2018-12-04T00:47:51.092Z,1005.05
2018-12-04T00:48:51.011Z,1005.05
2018-12-04T00:49:51.011Z,1005.11
2018-12-04T00:50:50.888Z,1005.12
2018-12-04T00:51:50.887Z,1005.19
2018-12-04T00:52:50.886Z,1005.19
2018-12-04T00:53:50.771Z,1005.28
2018-12-04T00:54:50.769Z,1005.26
2018-12-04T00:55:50.646Z,1005.29
2018-12-04T00:56:50.644Z,1005.38
2018-12-04T00:57:50.646Z,1005.37
2018-12-04T00:58:50.528Z,1005.43
2018-12-04T00:59:50.531Z,1005.44
2018-12-04T01:00:50.407Z,1005.51
2018-12-04T01:01:50.408Z,1005.51
2018-12-04T01:02:50.406Z,1005.57
2018-12-04T01:03:50.293Z,1005.62
2018-12-04T01:04:50.288Z,1005.65
2018-12-04T01:05:50.166Z,1005.67
2018-12-04T01:06:50.172Z,1005.71
2018-12-04T01:07:50.168Z,1005.66
2018-12-04T01:08:50.045Z,1005.73
2018-12-04T01:09:50.051Z,1005.78
2018-12-04T01:10:49.925Z,1005.82
2018-12-04T01:11:49.930Z,1005.81
2018-12-04T01:12:49.925Z,1005.81
2018-12-04T01:13:49.806Z,1005.81
2018-12-04T01:14:49.805Z,1005.87
2018-12-04T01:15:49.803Z,1005.89
2018-12-04T01:16:49.683Z,1005.91
2018-12-04T01:17:49.682Z,1005.92
2018-12-04T01:18:49.561Z,1005.97
2018-12-04T01:19:49.569Z,1005.94
2018-12-04T01:20:49.568Z,1005.99
2018-12-04T01:21:49.444Z,1006.04
2018-12-04T01:22:49.444Z,1006.00
2018-12-04T01:23:49.328Z,1006.02
2018-12-04T01:24:49.331Z,1005.98
2018-12-04T01:25:49.323Z,1006.04
2018-12-04T01:26:49.207Z,1006.05
2018-12-04T01:27:49.206Z,1006.06
2018-12-04T01:28:49.085Z,1006.11
2018-12-04T01:29:49.080Z,1006.17
2018-12-04T01:30:49.084Z,1006.24
2018-12-04T01:31:48.960Z,1006.27
2018-12-04T01:32:48.965Z,1006.31
2018-12-04T01:33:48.840Z,1006.35
2018-12-04T01:34:48.839Z,1006.41
2018-12-04T01:35:48.845Z,1006.44
2018-12-04T01:36:49.950Z,1006.48
2018-12-04T01:37:48.722Z,1006.50
2018-12-04T01:38:48.683Z,1006.48
2018-12-04T01:39:48.599Z,1006.43
2018-12-04T01:40:48.603Z,1006.49
2018-12-04T01:41:48.480Z,1006.53
2018-12-04T01:42:48.484Z,1006.51
2018-12-04T01:43:48.480Z,1006.57
2018-12-04T01:44:48.360Z,1006.54
2018-12-04T01:45:48.355Z,1006.60
2018-12-04T01:46:51.377Z,1006.62
2018-12-04T01:47:48.239Z,1006.62
2018-12-04T01:48:48.237Z,1006.68
2018-12-04T01:49:48.120Z,1006.60
2018-12-04T01:50:48.115Z,1006.64
2018-12-04T01:51:47.999Z,1006.69
2018-12-04T01:52:48.001Z,1006.74
2018-12-04T01:53:47.997Z,1006.75
2018-12-04T01:54:47.877Z,1006.71
2018-12-04T01:55:47.872Z,1006.74
2018-12-04T01:56:47.758Z,1006.74
2018-12-04T01:57:47.752Z,1006.77
2018-12-04T01:58:47.752Z,1006.84
2018-12-04T01:59:47.633Z,1006.84
2018-12-04T02:00:47.635Z,1006.86
2018-12-04T02:01:47.597Z,1006.94
2018-12-04T02:02:47.512Z,1006.98
2018-12-04T02:03:47.513Z,1007.02
2018-12-04T02:04:47.406Z,1007.02
2018-12-04T02:05:47.399Z,1007.07
2018-12-04T02:06:47.391Z,1007.07
2018-12-04T02:07:47.275Z,1007.10
2018-12-04T02:08:47.271Z,1007.07
2018-12-04T02:09:47.154Z,1007.09
2018-12-04T02:10:47.157Z,1007.12
2018-12-04T02:11:47.150Z,1007.14
2018-12-04T02:12:47.030Z,1007.14
2018-12-04T02:13:47.034Z,1007.17
2018-12-04T02:14:46.910Z,1007.19
2018-12-04T02:15:46.912Z,1007.25
2018-12-04T02:16:46.911Z,1007.30
2018-12-04T02:17:46.907Z,1007.31
2018-12-04T02:18:46.789Z,1007.36
2018-12-04T02:19:46.675Z,1007.35
2018-12-04T02:20:46.669Z,1007.37
2018-12-04T02:21:46.670Z,1007.39
2018-12-04T02:22:46.548Z,1007.41
2018-12-04T02:23:46.555Z,1007.45
2018-12-04T02:24:46.511Z,1007.42
2018-12-04T02:25:46.433Z,1007.46
2018-12-04T02:26:46.427Z,1007.53
2018-12-04T02:27:46.307Z,1007.50
2018-12-04T02:28:46.307Z,1007.48
2018-12-04T02:29:46.308Z,1007.52
2018-12-04T02:30:46.192Z,1007.51
2018-12-04T02:31:46.188Z,1007.50
2018-12-04T02:32:46.069Z,1007.51
2018-12-04T02:33:46.068Z,1007.50
2018-12-04T02:34:46.078Z,1007.51
2018-12-04T02:35:45.946Z,1007.52
2018-12-04T02:36:45.944Z,1007.51
2018-12-04T02:37:45.827Z,1007.53
2018-12-04T02:38:45.825Z,1007.54
2018-12-04T02:39:45.824Z,1007.53
2018-12-04T02:40:45.707Z,1007.58
2018-12-04T02:41:45.703Z,1007.55
2018-12-04T02:42:45.586Z,1007.60
2018-12-04T02:43:45.587Z,1007.62
2018-12-04T02:44:45.583Z,1007.63
2018-12-04T02:45:45.464Z,1007.60
2018-12-04T02:46:45.467Z,1007.64
2018-12-04T02:47:45.426Z,1007.63
2018-12-04T02:48:45.342Z,1007.63
2018-12-04T02:49:45.343Z,1007.66
2018-12-04T02:50:45.228Z,1007.68
2018-12-04T02:51:45.222Z,1007.68
2018-12-04T02:52:45.224Z,1007.70
2018-12-04T02:53:45.116Z,1007.76
2018-12-04T02:54:45.100Z,1007.78
2018-12-04T02:55:44.989Z,1007.80
2018-12-04T02:56:45.036Z,1007.83
2018-12-04T02:57:44.981Z,1007.86
2018-12-04T02:58:44.860Z,1007.89
2018-12-04T02:59:44.869Z,1007.92
2018-12-04T03:00:44.739Z,1007.92
2018-12-04T03:01:44.741Z,1007.94
2018-12-04T03:02:44.739Z,1007.97
2018-12-04T03:03:44.621Z,1008.01
2018-12-04T03:04:44.622Z,1008.00
2018-12-04T03:05:44.501Z,1008.01
2018-12-04T03:06:44.499Z,1008.03
2018-12-04T03:07:44.498Z,1008.01
2018-12-04T03:08:44.378Z,1008.03
2018-12-04T03:09:44.379Z,1008.03
2018-12-04T03:10:44.348Z,1008.06
2018-12-04T03:11:44.262Z,1008.06
2018-12-04T03:12:44.258Z,1008.11
2018-12-04T03:13:44.142Z,1008.12
2018-12-04T03:14:44.138Z,1008.17
2018-12-04T03:15:44.137Z,1008.22
2018-12-04T03:16:44.017Z,1008.20
2018-12-04T03:17:44.069Z,1008.24
2018-12-04T03:18:43.898Z,1008.29
2018-12-04T03:19:43.899Z,1008.26
2018-12-04T03:20:43.900Z,1008.35
2018-12-04T03:21:43.777Z,1008.35
2018-12-04T03:22:43.776Z,1008.40
2018-12-04T03:23:43.658Z,1008.42
2018-12-04T03:24:43.658Z,1008.41
2018-12-04T03:25:43.655Z,1008.45
2018-12-04T03:26:43.538Z,1008.44
2018-12-04T03:27:43.534Z,1008.44
2018-12-04T03:28:43.417Z,1008.50
2018-12-04T03:29:43.416Z,1008.50
2018-12-04T03:30:43.426Z,1008.55
2018-12-04T03:31:43.296Z,1008.55
2018-12-04T03:32:43.297Z,1008.58
2018-12-04T03:33:43.174Z,1008.62
2018-12-04T03:34:43.178Z,1008.62
2018-12-04T03:35:43.198Z,1008.67
2018-12-04T03:36:43.058Z,1008.69
2018-12-04T03:37:43.053Z,1008.67
2018-12-04T03:38:43.018Z,1008.76
2018-12-04T03:39:42.933Z,1008.72
2018-12-04T03:40:42.933Z,1008.75
2018-12-04T03:41:42.821Z,1008.70
2018-12-04T03:42:42.813Z,1008.77
2018-12-04T03:43:42.824Z,1008.74
2018-12-04T03:44:42.777Z,1008.74
2018-12-04T03:45:42.774Z,1008.83
2018-12-04T03:46:42.691Z,1008.82
2018-12-04T03:47:42.657Z,1008.79
2018-12-04T03:48:42.578Z,1008.85
2018-12-04T03:49:42.451Z,1008.86
2018-12-04T03:50:42.455Z,1008.90
2018-12-04T03:51:42.332Z,1008.90
2018-12-04T03:52:42.338Z,1008.88
2018-12-04T03:53:42.329Z,1008.91
2018-12-04T03:54:42.211Z,1008.95
2018-12-04T03:55:42.214Z,1008.89
2018-12-04T03:56:42.090Z,1008.93
2018-12-04T03:57:42.089Z,1008.96
2018-12-04T03:58:42.089Z,1009.01
2018-12-04T03:59:41.971Z,1009.00
2018-12-04T04:00:41.969Z,1009.07
2018-12-04T04:01:41.849Z,1009.05
2018-12-04T04:02:41.848Z,1009.11
2018-12-04T04:03:41.848Z,1009.12
2018-12-04T04:04:41.728Z,1009.17
2018-12-04T04:05:41.737Z,1009.18
2018-12-04T04:06:41.608Z,1009.19
2018-12-04T04:07:41.616Z,1009.16
2018-12-04T04:08:41.608Z,1009.13
2018-12-04T04:09:41.487Z,1009.14
2018-12-04T04:10:41.487Z,1009.17
2018-12-04T04:11:41.483Z,1009.17
2018-12-04T04:12:41.366Z,1009.20
2018-12-04T04:13:41.369Z,1009.23
2018-12-04T04:14:41.253Z,1009.24
2018-12-04T04:15:41.252Z,1009.25
2018-12-04T04:16:41.249Z,1009.29
2018-12-04T04:17:41.125Z,1009.32
2018-12-04T04:18:41.126Z,1009.32
2018-12-04T04:19:41.008Z,1009.32
2018-12-04T04:20:41.012Z,1009.40
2018-12-04T04:21:41.009Z,1009.32
2018-12-04T04:22:40.888Z,1009.48
2018-12-04T04:23:40.896Z,1009.44
2018-12-04T04:24:40.772Z,1009.49
2018-12-04T04:25:40.766Z,1009.53
2018-12-04T04:26:40.768Z,1009.51
2018-12-04T04:27:40.643Z,1009.61
2018-12-04T04:28:40.649Z,1009.60
2018-12-04T04:29:40.530Z,1009.68
2018-12-04T04:30:40.523Z,1009.70
2018-12-04T04:31:40.526Z,1009.69
2018-12-04T04:32:40.405Z,1009.69
2018-12-04T04:33:40.402Z,1009.73
2018-12-04T04:34:40.283Z,1009.73
2018-12-04T04:35:40.283Z,1009.74
2018-12-04T04:36:40.283Z,1009.78
2018-12-04T04:37:40.168Z,1009.77
2018-12-04T04:38:40.164Z,1009.75
2018-12-04T04:39:40.039Z,1009.74
2018-12-04T04:40:40.042Z,1009.72
2018-12-04T04:41:40.046Z,1009.74
2018-12-04T04:42:39.922Z,1009.79
2018-12-04T04:43:39.922Z,1009.78
2018-12-04T04:44:39.805Z,1009.79
2018-12-04T04:45:39.801Z,1009.77
2018-12-04T04:46:39.802Z,1009.79
2018-12-04T04:47:39.680Z,1009.87
2018-12-04T04:48:39.679Z,1009.90
2018-12-04T04:49:39.557Z,1009.95
2018-12-04T04:50:39.558Z,1009.97
2018-12-04T04:51:39.559Z,1009.99
2018-12-04T04:52:39.439Z,1010.05
2018-12-04T04:53:39.439Z,1010.04
2018-12-04T04:54:39.318Z,1010.06
2018-12-04T04:55:39.324Z,1010.10
2018-12-04T04:56:39.317Z,1010.11
2018-12-04T04:57:39.198Z,1010.15
2018-12-04T04:58:39.209Z,1010.16
2018-12-04T04:59:39.167Z,1010.17
2018-12-04T05:00:39.075Z,1010.21
2018-12-04T05:01:39.078Z,1010.18
2018-12-04T05:02:38.954Z,1010.22
2018-12-04T05:03:38.963Z,1010.22
2018-12-04T05:04:38.924Z,1010.25
2018-12-04T05:05:38.836Z,1010.20
2018-12-04T05:06:38.837Z,1010.22
2018-12-04T05:07:38.722Z,1010.23
2018-12-04T05:08:38.719Z,1010.23
2018-12-04T05:09:38.715Z,1010.27
2018-12-04T05:10:38.617Z,1010.29
2018-12-04T05:11:38.603Z,1010.32
2018-12-04T05:12:38.474Z,1010.35
2018-12-04T05:13:38.490Z,1010.39
2018-12-04T05:14:38.476Z,1010.41
2018-12-04T05:15:38.353Z,1010.41
2018-12-04T05:16:38.352Z,1010.44
2018-12-04T05:17:38.237Z,1010.53
2018-12-04T05:18:38.236Z,1010.52
2018-12-04T05:19:38.234Z,1010.55
2018-12-04T05:20:38.112Z,1010.60
2018-12-04T05:21:38.111Z,1010.63
2018-12-04T05:22:37.990Z,1010.63
2018-12-04T05:23:37.991Z,1010.70
2018-12-04T05:24:37.995Z,1010.67
2018-12-04T05:25:37.871Z,1010.70
2018-12-04T05:26:37.870Z,1010.71
2018-12-04T05:27:37.758Z,1010.73
2018-12-04T05:28:37.750Z,1010.79
2018-12-04T05:29:37.749Z,1010.79
2018-12-04T05:30:37.629Z,1010.80
2018-12-04T05:31:37.628Z,1010.77
2018-12-04T05:32:37.509Z,1010.78
2018-12-04T05:33:37.509Z,1010.84
2018-12-04T05:34:37.511Z,1010.85
2018-12-04T05:35:37.392Z,1010.90
2018-12-04T05:36:37.389Z,1010.90
2018-12-04T05:37:37.267Z,1010.90
2018-12-04T05:38:37.275Z,1010.90
2018-12-04T05:39:37.268Z,1010.81
2018-12-04T05:40:37.147Z,1010.93
2018-12-04T05:41:37.146Z,1010.96
2018-12-04T05:42:37.073Z,1011.01
2018-12-04T05:43:37.028Z,1011.01
2018-12-04T05:44:37.026Z,1011.02
2018-12-04T05:45:36.905Z,1011.04
2018-12-04T05:46:36.908Z,1011.03
2018-12-04T05:47:36.787Z,1011.07
2018-12-04T05:48:36.784Z,1011.09
2018-12-04T05:49:36.808Z,1011.11
2018-12-04T05:50:36.666Z,1011.11
2018-12-04T05:51:36.665Z,1011.14
2018-12-04T05:52:36.544Z,1011.19
2018-12-04T05:53:36.543Z,1011.22
2018-12-04T05:54:36.548Z,1011.24
2018-12-04T05:55:36.425Z,1011.24
2018-12-04T05:56:36.424Z,1011.26
2018-12-04T05:57:36.304Z,1011.27
2018-12-04T05:58:36.304Z,1011.28
2018-12-04T05:59:36.302Z,1011.28
2018-12-04T06:00:36.182Z,1011.28
2018-12-04T06:01:36.182Z,1011.33
2018-12-04T06:02:36.064Z,1011.35
2018-12-04T06:03:36.062Z,1011.34
2018-12-04T06:04:36.069Z,1011.36
2018-12-04T06:05:35.942Z,1011.42
2018-12-04T06:06:35.941Z,1011.36
2018-12-04T06:07:35.820Z,1011.38
2018-12-04T06:08:35.826Z,1011.44
2018-12-04T06:09:35.823Z,1011.46
2018-12-04T06:10:35.701Z,1011.50
2018-12-04T06:11:35.698Z,1011.48
2018-12-04T06:12:35.580Z,1011.52
2018-12-04T06:13:35.577Z,1011.52
2018-12-04T06:14:35.579Z,1011.58
2018-12-04T06:15:35.457Z,1011.60
2018-12-04T06:16:35.462Z,1011.62
2018-12-04T06:17:35.344Z,1011.68
2018-12-04T06:18:35.341Z,1011.72
2018-12-04T06:19:35.336Z,1011.74
2018-12-04T06:20:35.218Z,1011.79
2018-12-04T06:21:35.216Z,1011.83
2018-12-04T06:22:35.181Z,1011.88
2018-12-04T06:23:35.098Z,1011.85
2018-12-04T06:24:35.096Z,1011.94
2018-12-04T06:25:34.984Z,1011.92
2018-12-04T06:26:34.979Z,1012.02
2018-12-04T06:27:34.857Z,1012.01
2018-12-04T06:28:34.858Z,1012.00
2018-12-04T06:29:34.859Z,1012.05
2018-12-04T06:30:34.735Z,1012.10
2018-12-04T06:31:34.734Z,1012.11
2018-12-04T06:32:34.614Z,1012.11
2018-12-04T06:33:34.619Z,1012.20
2018-12-04T06:34:34.618Z,1012.25
2018-12-04T06:35:34.496Z,1012.28
2018-12-04T06:36:34.494Z,1012.27
2018-12-04T06:37:34.376Z,1012.29
2018-12-04T06:38:34.373Z,1012.32
2018-12-04T06:39:34.379Z,1012.29
2018-12-04T06:40:34.252Z,1012.39
2018-12-04T06:41:34.254Z,1012.38
2018-12-04T06:42:34.215Z,1012.38
2018-12-04T06:43:34.130Z,1012.41
2018-12-04T06:44:35.271Z,1012.43
2018-12-04T06:45:34.010Z,1012.42
2018-12-04T06:46:34.011Z,1012.44
2018-12-04T06:47:33.974Z,1012.46
2018-12-04T06:48:33.890Z,1012.53
2018-12-04T06:49:33.893Z,1012.55
2018-12-04T06:50:33.775Z,1012.61
2018-12-04T06:51:33.771Z,1012.58
2018-12-04T06:52:33.734Z,1012.58
2018-12-04T06:53:33.651Z,1012.65
2018-12-04T06:54:33.651Z,1012.69
2018-12-04T06:55:33.529Z,1012.71
2018-12-04T06:56:33.529Z,1012.71
2018-12-04T06:57:33.524Z,1012.74
2018-12-04T06:58:33.410Z,1012.78
2018-12-04T06:59:33.411Z,1012.79
2018-12-04T07:00:33.289Z,1012.79
2018-12-04T07:01:33.288Z,1012.79
2018-12-04T07:02:33.286Z,1012.84
2018-12-04T07:03:33.169Z,1012.83
2018-12-04T07:04:33.492Z,1012.92
2018-12-04T07:05:33.055Z,1012.93
2018-12-04T07:06:33.049Z,1012.99
2018-12-04T07:07:33.048Z,1012.99
2018-12-04T07:08:32.935Z,1013.02
2018-12-04T07:09:32.927Z,1013.02
2018-12-04T07:10:32.808Z,1013.04
2018-12-04T07:11:32.809Z,1013.08
2018-12-04T07:12:32.808Z,1013.07
2018-12-04T07:13:32.688Z,1013.12
2018-12-04T07:14:32.687Z,1013.15
2018-12-04T07:15:32.566Z,1013.15
2018-12-04T07:16:32.568Z,1013.18
2018-12-04T07:17:32.569Z,1013.19
2018-12-04T07:18:32.444Z,1013.21
2018-12-04T07:19:32.446Z,1013.26
2018-12-04T07:20:32.325Z,1013.31
2018-12-04T07:21:32.325Z,1013.32
2018-12-04T07:22:32.324Z,1013.38
2018-12-04T07:23:32.202Z,1013.43
2018-12-04T07:24:32.205Z,1013.43
2018-12-04T07:25:32.088Z,1013.44
2018-12-04T07:26:32.083Z,1013.49
2018-12-04T07:27:32.093Z,1013.51
2018-12-04T07:28:31.968Z,1013.59
2018-12-04T07:29:31.967Z,1013.57
2018-12-04T07:30:31.847Z,1013.59
2018-12-04T07:31:31.840Z,1013.64
2018-12-04T07:32:31.845Z,1013.61
2018-12-04T07:33:31.722Z,1013.58
2018-12-04T07:34:31.841Z,1013.48
2018-12-04T07:35:31.718Z,1013.60
2018-12-04T07:36:31.728Z,1013.59
2018-12-04T07:37:31.695Z,1013.61
2018-12-04T07:38:31.482Z,1013.64
2018-12-04T07:39:31.478Z,1013.67
2018-12-04T07:40:31.360Z,1013.70
2018-12-04T07:41:31.364Z,1013.76
2018-12-04T07:42:31.361Z,1013.80
2018-12-04T07:43:31.238Z,1013.83
2018-12-04T07:44:31.248Z,1013.83
2018-12-04T07:45:31.119Z,1013.85
2018-12-04T07:46:31.121Z,1013.89
2018-12-04T07:47:31.118Z,1013.96
2018-12-04T07:48:30.999Z,1013.98
2018-12-04T07:49:30.997Z,1013.93
2018-12-04T07:50:30.886Z,1013.98
2018-12-04T07:51:30.882Z,1013.98
2018-12-04T07:52:30.890Z,1013.97
2018-12-04T07:53:30.759Z,1013.99
2018-12-04T07:54:30.757Z,1014.02
2018-12-04T07:55:30.635Z,1014.03
2018-12-04T07:56:30.643Z,1014.05
2018-12-04T07:57:30.646Z,1014.16
2018-12-04T07:58:30.523Z,1014.16
2018-12-04T07:59:30.524Z,1014.19
2018-12-04T08:00:30.398Z,1014.20
2018-12-04T08:01:30.396Z,1014.25
2018-12-04T08:02:30.401Z,1014.28
2018-12-04T08:03:30.278Z,1014.31
2018-12-04T08:04:30.286Z,1014.34
2018-12-04T08:05:30.152Z,1014.35
2018-12-04T08:06:30.157Z,1014.39
2018-12-04T08:07:30.158Z,1014.40
2018-12-04T08:08:30.035Z,1014.42
2018-12-04T08:09:30.033Z,1014.50
2018-12-04T08:10:29.913Z,1014.47
2018-12-04T08:11:29.913Z,1014.54
2018-12-04T08:12:29.911Z,1014.45
2018-12-04T08:13:29.791Z,1014.52
2018-12-04T08:14:29.793Z,1014.53
2018-12-04T08:15:29.671Z,1014.54
2018-12-04T08:16:29.683Z,1014.55
2018-12-04T08:17:29.672Z,1014.58
2018-12-04T08:18:29.550Z,1014.61
2018-12-04T08:19:29.550Z,1014.63
2018-12-04T08:20:29.432Z,1014.64
2018-12-04T08:21:29.438Z,1014.66
2018-12-04T08:22:29.444Z,1014.70
2018-12-04T08:23:29.317Z,1014.69
2018-12-04T08:24:29.313Z,1014.71
2018-12-04T08:25:29.212Z,1014.70
2018-12-04T08:26:29.188Z,1014.71
2018-12-04T08:27:29.192Z,1014.68
2018-12-04T08:28:29.067Z,1014.72
2018-12-04T08:29:29.071Z,1014.77
2018-12-04T08:30:28.947Z,1014.82
2018-12-04T08:31:28.959Z,1014.84
2018-12-04T08:32:28.952Z,1014.86
2018-12-04T08:33:28.829Z,1014.86
2018-12-04T08:34:28.826Z,1014.93
2018-12-04T08:35:28.710Z,1014.95
2018-12-04T08:36:28.707Z,1014.96
2018-12-04T08:37:28.706Z,1014.99
2018-12-04T08:38:28.586Z,1015.02
2018-12-04T08:39:28.588Z,1015.04
2018-12-04T08:40:28.465Z,1015.09
2018-12-04T08:41:28.465Z,1015.12
2018-12-04T08:42:28.470Z,1015.09
2018-12-04T08:43:28.345Z,1015.11
2018-12-04T08:44:28.345Z,1015.09
2018-12-04T08:45:28.224Z,1015.11
2018-12-04T08:46:28.223Z,1015.13
2018-12-04T08:47:28.229Z,1015.19
2018-12-04T08:48:28.107Z,1015.17
2018-12-04T08:49:28.105Z,1015.20
2018-12-04T08:50:27.984Z,1015.22
2018-12-04T08:51:27.982Z,1015.19
2018-12-04T08:52:27.983Z,1015.22
2018-12-04T08:53:27.862Z,1015.21
2018-12-04T08:54:27.866Z,1015.22
2018-12-04T08:55:27.748Z,1015.20
2018-12-04T08:56:27.743Z,1015.25
2018-12-04T08:57:27.742Z,1015.26
2018-12-04T08:58:27.623Z,1015.24
2018-12-04T08:59:27.622Z,1015.30
2018-12-04T09:00:27.503Z,1015.34
2018-12-04T09:01:27.502Z,1015.32
2018-12-04T09:02:27.501Z,1015.35
2018-12-04T09:03:27.385Z,1015.39
2018-12-04T09:04:27.387Z,1015.40
2018-12-04T09:05:27.265Z,1015.38
2018-12-04T09:06:27.266Z,1015.47
2018-12-04T09:07:27.261Z,1015.44
2018-12-04T09:08:27.140Z,1015.52
2018-12-04T09:09:27.143Z,1015.59
2018-12-04T09:10:27.020Z,1015.58
2018-12-04T09:11:27.020Z,1015.63
2018-12-04T09:12:27.018Z,1015.57
2018-12-04T09:13:26.904Z,1015.63
2018-12-04T09:14:26.899Z,1015.64
2018-12-04T09:15:26.787Z,1015.67
2018-12-04T09:16:26.779Z,1015.71
2018-12-04T09:17:26.781Z,1015.77
2018-12-04T09:18:26.680Z,1015.77
2018-12-04T09:19:26.707Z,1015.83
2018-12-04T09:20:26.555Z,1015.81
2018-12-04T09:21:26.559Z,1015.86
2018-12-04T09:22:26.559Z,1015.93
2018-12-04T09:23:26.424Z,1016.00
2018-12-04T09:24:30.707Z,1015.99
2018-12-04T09:25:26.325Z,1016.00
2018-12-04T09:26:26.295Z,1015.97
2018-12-04T09:27:26.307Z,1016.02
2018-12-04T09:28:26.192Z,1016.07
2018-12-04T09:29:26.185Z,1016.09
2018-12-04T09:30:26.054Z,1016.12
2018-12-04T09:31:26.055Z,1016.16
2018-12-04T09:32:26.056Z,1016.22
2018-12-04T09:33:25.939Z,1016.27
2018-12-04T09:34:29.861Z,1016.25
2018-12-04T09:35:25.814Z,1016.29
2018-12-04T09:36:25.813Z,1016.33
2018-12-04T09:37:25.813Z,1016.35
2018-12-04T09:38:25.695Z,1016.44
2018-12-04T09:39:25.694Z,1016.40
2018-12-04T09:40:25.576Z,1016.45
2018-12-04T09:41:25.573Z,1016.45
2018-12-04T09:42:25.572Z,1016.46
2018-12-04T09:43:25.454Z,1016.48
2018-12-04T09:44:25.452Z,1016.46
2018-12-04T09:45:25.415Z,1016.50
2018-12-04T09:46:25.336Z,1016.52
2018-12-04T09:47:25.333Z,1016.53
2018-12-04T09:48:25.213Z,1016.55
2018-12-04T09:49:25.212Z,1016.59
2018-12-04T09:50:25.214Z,1016.67
2018-12-04T09:51:25.089Z,1016.69
2018-12-04T09:52:25.090Z,1016.67
2018-12-04T09:53:25.365Z,1016.68
2018-12-04T09:54:24.971Z,1016.68
2018-12-04T09:55:24.970Z,1016.71
2018-12-04T09:56:24.849Z,1016.72
2018-12-04T09:57:24.850Z,1016.72
2018-12-04T09:58:24.729Z,1016.73
2018-12-04T09:59:24.727Z,1016.75
2018-12-04T10:00:24.730Z,1016.83
2018-12-04T10:01:24.609Z,1016.86
2018-12-04T10:02:24.608Z,1016.86
2018-12-04T10:03:24.488Z,1016.87
2018-12-04T10:04:24.486Z,1016.90
2018-12-04T10:05:24.488Z,1016.84
2018-12-04T10:06:24.366Z,1016.88
2018-12-04T10:07:24.370Z,1016.87
2018-12-04T10:08:24.720Z,1016.85
2018-12-04T10:09:24.252Z,1016.87
2018-12-04T10:10:24.245Z,1016.88
2018-12-04T10:11:24.126Z,1016.88
2018-12-04T10:12:24.127Z,1016.88
2018-12-04T10:13:24.010Z,1016.85
2018-12-04T10:14:24.006Z,1016.94
2018-12-04T10:15:24.009Z,1016.92
2018-12-04T10:16:23.886Z,1016.91
2018-12-04T10:17:23.887Z,1016.92
2018-12-04T10:18:23.765Z,1016.92
2018-12-04T10:19:23.764Z,1016.95
2018-12-04T10:20:23.763Z,1016.94
2018-12-04T10:21:23.644Z,1016.93
2018-12-04T10:22:23.644Z,1016.94
2018-12-04T10:23:23.644Z,1016.96
2018-12-04T10:24:23.522Z,1016.98
2018-12-04T10:25:23.522Z,1016.97
2018-12-04T10:26:23.402Z,1017.01
2018-12-04T10:27:23.401Z,1016.97
2018-12-04T10:28:23.404Z,1017.03
2018-12-04T10:29:23.285Z,1017.04
2018-12-04T10:30:23.285Z,1017.02
2018-12-04T10:31:23.162Z,1017.06
2018-12-04T10:32:23.160Z,1017.05
2018-12-04T10:33:23.162Z,1017.02
2018-12-04T10:34:23.041Z,1017.06
2018-12-04T10:35:23.039Z,1017.07
2018-12-04T10:36:22.920Z,1017.06
2018-12-04T10:37:22.920Z,1017.05
2018-12-04T10:38:22.929Z,1017.07
2018-12-04T10:39:22.799Z,1017.07
2018-12-04T10:40:22.798Z,1017.08
2018-12-04T10:41:22.679Z,1017.09
2018-12-04T10:42:22.679Z,1017.09
2018-12-04T10:43:22.679Z,1017.16
2018-12-04T10:44:22.557Z,1017.11
2018-12-04T10:45:22.558Z,1017.11
2018-12-04T10:46:22.522Z,1017.14
2018-12-04T10:47:22.436Z,1017.24
2018-12-04T10:48:22.437Z,1017.20
2018-12-04T10:49:22.320Z,1017.14
2018-12-04T10:50:22.316Z,1017.29
2018-12-04T10:51:22.316Z,1017.31
2018-12-04T10:52:22.198Z,1017.30
2018-12-04T10:53:22.196Z,1017.32
2018-12-04T10:54:22.075Z,1017.39
2018-12-04T10:55:22.077Z,1017.39
2018-12-04T10:56:22.075Z,1017.38
2018-12-04T10:57:21.954Z,1017.39
2018-12-04T10:58:21.955Z,1017.41
2018-12-04T10:59:21.834Z,1017.41
2018-12-04T11:00:21.835Z,1017.40
2018-12-04T11:01:21.834Z,1017.42
2018-12-04T11:02:21.714Z,1017.41
2018-12-04T11:03:21.714Z,1017.41
2018-12-04T11:04:21.713Z,1017.45
2018-12-04T11:05:21.595Z,1017.48
2018-12-04T11:06:21.598Z,1017.44
2018-12-04T11:07:21.472Z,1017.46
2018-12-04T11:08:21.472Z,1017.47
2018-12-04T11:09:21.477Z,1017.44
2018-12-04T11:10:21.360Z,1017.49
2018-12-04T11:11:21.351Z,1017.52
2018-12-04T11:12:21.232Z,1017.48
2018-12-04T11:13:21.233Z,1017.54
2018-12-04T11:14:21.233Z,1017.52
2018-12-04T11:15:21.109Z,1017.53
2018-12-04T11:16:21.113Z,1017.52
2018-12-04T11:17:20.991Z,1017.54
2018-12-04T11:18:20.994Z,1017.56
2018-12-04T11:19:20.989Z,1017.53
2018-12-04T11:20:20.870Z,1017.57
2018-12-04T11:21:20.873Z,1017.59
2018-12-04T11:22:20.833Z,1017.61
2018-12-04T11:23:20.756Z,1017.63
2018-12-04T11:24:20.753Z,1017.66
2018-12-04T11:25:20.628Z,1017.66
2018-12-04T11:26:20.631Z,1017.65
2018-12-04T11:27:20.629Z,1017.69
2018-12-04T11:28:20.510Z,1017.73
2018-12-04T11:29:20.509Z,1017.79
2018-12-04T11:30:20.391Z,1017.76
2018-12-04T11:31:20.397Z,1017.80
2018-12-04T11:32:20.393Z,1017.79
2018-12-04T11:33:20.271Z,1017.79
2018-12-04T11:34:20.269Z,1017.80
2018-12-04T11:35:20.147Z,1017.75
2018-12-04T11:36:20.147Z,1017.77
2018-12-04T11:37:20.148Z,1017.82
2018-12-04T11:38:20.026Z,1017.80
2018-12-04T11:39:20.026Z,1017.80
2018-12-04T11:40:19.992Z,1017.82
2018-12-04T11:41:19.906Z,1017.86
2018-12-04T11:42:19.907Z,1017.85
2018-12-04T11:43:19.786Z,1017.87
2018-12-04T11:44:19.786Z,1017.87
2018-12-04T11:45:19.785Z,1017.90
2018-12-04T11:46:19.668Z,1017.88
2018-12-04T11:47:19.746Z,1017.91
2018-12-04T11:48:19.545Z,1017.89
2018-12-04T11:49:19.544Z,1017.91
2018-12-04T11:50:19.551Z,1017.98
2018-12-04T11:51:19.423Z,1017.93
2018-12-04T11:52:19.425Z,1017.96
2018-12-04T11:53:19.303Z,1017.92
2018-12-04T11:54:19.301Z,1017.99
2018-12-04T11:55:19.304Z,1017.95
2018-12-04T11:56:19.184Z,1017.97
2018-12-04T11:57:19.183Z,1017.95
2018-12-04T11:58:19.062Z,1017.96
2018-12-04T11:59:19.062Z,1017.99
2018-12-04T12:00:19.068Z,1018.03
2018-12-04T12:01:18.944Z,1018.01
2018-12-04T12:02:18.943Z,1018.01
2018-12-04T12:03:18.941Z,1018.04
2018-12-04T12:04:18.822Z,1018.07
2018-12-04T12:05:18.821Z,1018.08